Latest Coastal Weather Observations for Kowanyama

IDQ60701

Issued at 7:51 pm EST Tuesday 21 April 2015 (issued every 10 minutes, with the page automatically refreshed every 10 minutes)

About coastal observations | Map of coastal stations | Coastal observations for QLD | Marine services | Other Formats
Station Details ID: 029038 Name: KOWANYAMA AIRPORT Lat: -15.48 Lon: 141.75 Height: 9.6 m
Data from the previous 72 hours. | See also: Recent months at Kowanyama
Date/Time
EST
Temp

°C
Wind Pressure Rain
since 9am
mm
Weather Cloud Vis
km
Sea
Height
m
Swell
Dir
 
Speed
knots
Gust
knots
hPa Trend Height
m
Period
s
Dir
21/07:30pm 27.8 WSW 5 8 1010.5 - 0.0 - - - - - - -
21/07:00pm 28.2 WSW 7 9 1010.3 - 0.0 - - - - - - -
21/06:30pm 29.1 S 3 8 1010.0 - 0.0 - - - - - - -
21/06:00pm 31.4 SE 4 5 1009.6 - 0.0 - - - - - - -
21/05:30pm 32.4 SE 7 8 1009.3 - 0.0 - Partly cloudy - - - - -
21/05:00pm 32.4 SSE 6 7 1009.3 - 0.0 - Partly cloudy - - - - -
21/04:30pm 33.0 ESE 5 9 1009.3 - 0.0 - Partly cloudy - - - - -
21/04:00pm 32.9 SE 7 10 1009.2 - 0.0 - - - - - - -
21/03:30pm 32.8 SE 5 11 1009.4 - 0.0 - Partly cloudy - - - - -
21/03:00pm 32.8 ESE 6 9 1009.5 - 0.0 - Mostly clear - - - - -
21/02:30pm 33.0 ESE 7 12 1009.6 - 0.0 - - - - - - -
21/02:00pm 31.9 SE 8 11 1010.1 - 0.0 - - - - - - -
21/01:30pm 31.8 SE 7 10 1010.6 - 0.0 - - - - - - -
21/01:00pm 31.1 ESE 8 11 1010.9 - 0.0 - - - - - - -
21/12:30pm 31.2 SE 8 12 1011.4 - 0.0 - Partly cloudy - - - - -
21/12:00pm 30.2 SSE 10 13 1011.9 - 0.0 - Mostly clear - - - - -
21/11:30am 29.5 SSE 9 12 1012.4 - 0.0 - Cloudy - - - - -
21/11:00am 29.7 ESE 9 13 1012.7 - 0.0 - Partly cloudy - - - - -
21/10:30am 28.9 SE 10 16 1013.0 - 0.0 - Partly cloudy - - - - -
21/10:00am 29.2 SSE 10 13 1013.2 - 0.0 - - - - - - -
21/09:30am 27.9 SE 10 15 1013.2 - 0.0 - - - - - - -
21/09:00am 27.3 SSE 8 10 1013.1 - 0.2 - - - - - - -
21/08:30am 26.4 SSE 8 12 1013.0 - 0.2 - - - - - - -
21/08:00am 25.6 SSE 6 9 1013.1 - 0.2 - - - - - - -
21/07:30am 25.4 SSE 6 8 1012.8 - 0.2 - Partly cloudy - - - - -
21/07:00am 25.3 SSE 5 7 1012.6 - 0.2 - Partly cloudy - - - - -
21/06:30am 25.4 SSE 6 7 1012.1 - 0.2 - Cloudy - - - - -
21/06:00am 25.5 SSE 5 5 1011.5 - 0.2 - Cloudy - - - - -
21/05:30am 25.9 SSE 5 7 1011.4 - 0.2 - Partly cloudy - - - - -
21/05:00am 25.9 SE 5 6 1011.4 - 0.2 - Cloudy - - - - -
21/04:30am 25.8 SE 3 5 1011.2 - 0.2 - Cloudy - - - - -
21/04:00am 25.8 SSE 4 5 1011.2 - 0.2 - Cloudy - - - - -
21/03:30am 25.6 SSE 4 5 1011.0 - 0.2 - Partly cloudy - - - - -
21/03:00am 25.5 CALM 0 0 1011.0 - 0.2 - Cloudy - - - - -
21/02:30am 25.5 SE 2 4 1011.2 - 0.2 - Partly cloudy - - - - -
21/02:00am 25.5 NE 4 8 1011.2 - 0.2 - Partly cloudy - - - - -
21/01:30am 26.0 CALM 0 0 1011.6 - 0.2 - Partly cloudy - - - - -
21/01:00am 26.3 S 2 5 1011.8 - 0.2 - Partly cloudy - - - - -
 
Date/Time
EST
Temp

°C
Wind Pressure Rain
since 9am
mm
Weather Cloud Vis
km
Sea
Height
m
Swell
Dir
 
Speed
knots
Gust
knots
hPa Trend Height
m
Period
s
Dir
20/11:30pm 27.3 NNE 4 6 1012.3 - 0.2 - Partly cloudy - - - - -
20/11:00pm 27.5 NE 4 6 1012.4 - 0.2 - Partly cloudy - - - - -
20/10:30pm 27.5 NE 6 9 1012.4 - 0.2 - Partly cloudy - - - - -
20/10:00pm 27.7 NE 7 12 1012.0 - 0.2 - Cloudy - - - - -
20/09:30pm 27.8 CALM 0 0 1011.4 - 0.2 - Partly cloudy - - - - -
20/09:00pm 27.7 W 2 4 1011.3 - 0.2 - Cloudy - - - - -
20/08:30pm 27.7 W 3 4 1011.1 - 0.2 - Partly cloudy - - - - -
20/08:00pm 28.0 WNW 3 4 1010.8 - 0.2 - - - - - - -
20/07:30pm 27.9 W 5 5 1010.4 - 0.2 - - - - - - -
20/07:00pm 28.1 NW 4 8 1010.0 - 0.2 - - - - - - -
20/06:30pm 29.5 CALM 0 0 1009.4 - 0.2 - - - - - - -
20/06:00pm 31.0 NE 3 3 1009.2 - 0.2 - - - - - - -
20/05:30pm 32.6 E 5 7 1009.1 - 0.2 - - - - - - -
20/05:00pm 33.6 ESE 7 9 1008.8 - 0.2 - - - - - - -
20/04:30pm 33.9 ESE 6 8 1008.9 - 0.2 - - - - - - -
20/04:00pm 34.3 ESE 6 8 1008.9 - 0.2 - - - - - - -
20/03:30pm 34.2 ENE 7 11 1009.1 - 0.2 - - - - - - -
20/03:00pm 33.6 ESE 8 11 1009.3 - 0.2 - - - - - - -
20/02:30pm 33.3 E 7 9 1009.7 - 0.2 - - - - - - -
20/02:00pm 33.6 SE 9 13 1010.1 - 0.2 - - - - - - -
20/01:30pm 33.1 ESE 8 12 1010.6 - 0.2 - - - - - - -
20/01:00pm 32.9 E 6 9 1010.9 - 0.2 - - - - - - -
20/12:30pm 32.2 E 9 13 1011.3 - 0.2 - - - - - - -
20/12:00pm 32.2 E 9 14 1011.8 - 0.2 - - - - - - -
20/11:30am 31.7 ESE 10 14 1012.2 - 0.2 - - - - - - -
20/11:00am 31.3 ESE 10 14 1012.9 - 0.2 - - - - - - -
20/10:30am 30.7 SE 12 16 1013.2 - 0.2 - - - - - - -
20/10:00am 30.4 SE 12 17 1013.4 - 0.2 - - - - - - -
20/09:30am 29.4 ESE 11 16 1013.4 - 0.0 - - - - - - -
20/09:00am 28.2 SE 12 16 1013.5 - 0.6 - - - - - - -
20/08:30am 27.8 SE 8 10 1013.3 - 0.6 - - - - - - -
20/08:00am 26.8 ESE 6 8 1013.1 - 0.6 - - - - - - -
20/07:30am 25.7 SE 5 7 1013.0 - 0.6 - - - - - - -
20/07:00am 24.5 ESE 1 5 1012.8 - 0.6 - Partly cloudy - - - - -
20/06:30am 24.2 ENE 3 4 1012.4 - 0.6 - Partly cloudy - - - - -
20/06:00am 25.1 SSE 3 4 1012.1 - 0.6 - Mostly cloudy - - - - -
20/05:30am 25.3 E 5 8 1011.8 - 0.6 - Partly cloudy - - - - -
20/05:00am 25.3 ESE 4 5 1011.8 - 0.6 - Partly cloudy - - - - -
20/04:30am 25.5 SE 5 6 1011.8 - 0.6 - Partly cloudy - - - - -
20/04:00am 25.1 ESE 3 4 1011.9 - 0.6 - Cloudy - - - - -
20/03:30am 24.9 ESE 2 4 1011.9 - 0.6 - Partly cloudy - - - - -
20/03:00am 24.9 CALM 0 0 1011.9 - 0.6 - Cloudy - - - - -
20/02:30am 24.8 CALM 0 0 1011.8 - 0.6 - Partly cloudy - - - - -
20/02:00am 24.6 CALM 0 0 1012.0 - 0.6 - - - - - - -
20/01:30am 24.5 NE 3 5 1012.3 - 0.6 - Partly cloudy - - - - -
20/01:00am 24.7 ENE 2 3 1012.4 - 0.6 - Partly cloudy - - - - -
20/12:30am 24.8 SSE 3 4 1012.7 - 0.6 - - - - - - -
20/12:00am 24.9 CALM 0 0 1013.0 - 0.6 - - - - - - -
 
Date/Time
EST
Temp

°C
Wind Pressure Rain
since 9am
mm
Weather Cloud Vis
km
Sea
Height
m
Swell
Dir
 
Speed
knots
Gust
knots
hPa Trend Height
m
Period
s
Dir
19/11:30pm 24.7 NE 1 3 1013.2 - 0.6 - - - - - - -
19/11:00pm 24.9 CALM 0 0 1013.1 - 0.6 - Partly cloudy - - - - -
19/10:30pm 24.8 CALM 0 0 1013.1 - 0.6 - Partly cloudy - - - - -
19/10:00pm 25.2 CALM 0 0 1012.8 - 0.6 - - - - - - -
19/09:30pm 25.1 SSW 4 5 1012.7 - 0.6 - Partly cloudy - - - - -
19/09:00pm 25.4 SSW 3 5 1012.5 - 0.6 - Mostly clear - - - - -
19/08:30pm 25.6 CALM 0 0 1012.1 - 0.6 - - - - - - -
19/08:00pm 25.7 CALM 0 0 1011.7 - 0.6 - - - - - - -
19/07:30pm 25.7 WSW 3 5 1011.4 - 0.6 - - - - - - -
19/07:00pm 25.6 WNW 3 5 1011.1 - 0.6 - - - - - - -
19/06:30pm 25.8 SSE 1 4 1011.2 - 0.6 - Partly cloudy - - - - -
19/06:00pm 26.1 SE 8 13 1011.5 - 0.6 - Cloudy - - - - -
19/05:30pm 29.2 E 7 19 1011.1 - 0.0 - Partly cloudy - - - - -
19/05:00pm 29.5 N 4 5 1010.4 - 0.0 - Partly cloudy - - - - -
19/04:30pm 31.1 E 6 11 1010.1 - 0.0 - Partly cloudy - - - - -
19/04:00pm 33.3 SSE 7 10 1009.9 - 0.0 - - - - - - -
19/03:30pm 32.6 SSE 7 11 1009.8 - 0.0 - - - - - - -
19/03:00pm 32.0 SSE 8 12 1010.2 - 0.0 - Mostly clear - - - - -
19/02:30pm 32.1 SSE 11 15 1010.7 - 0.0 - Partly cloudy - - - - -
19/02:00pm 32.1 NE 6 8 1011.1 - 0.0 - Partly cloudy - - - - -
19/01:30pm 33.0 ENE 6 9 1011.6 - 0.0 - Partly cloudy - - - - -
19/01:00pm 33.1 ENE 7 10 1012.0 - 0.0 - Partly cloudy - - - - -
19/12:30pm 32.1 SE 8 13 1012.5 - 0.0 - Partly cloudy - - - - -
19/12:00pm 31.7 ESE 8 10 1013.1 - 0.0 - Mostly cloudy - - - - -
19/11:30am 31.8 E 7 11 1013.5 - 0.0 - Partly cloudy - - - - -
19/11:00am 30.7 ESE 10 15 1013.6 - 0.0 - Partly cloudy - - - - -
19/10:30am 30.4 ESE 9 12 1013.6 - 0.0 - Partly cloudy - - - - -
19/10:00am 29.8 E 7 12 1013.9 - 0.0 - Partly cloudy - - - - -
19/09:30am 28.4 E 9 12 1013.9 - 0.0 - - - - - - -
19/09:00am 27.9 E 7 10 1013.5 - 1.4 - - - - - - -
19/08:30am 27.1 ESE 6 9 1013.4 - 1.4 - - - - - - -
19/08:00am 26.0 SE 5 7 1013.3 - 1.4 - Partly cloudy - - - - -
19/07:30am 25.4 SE 4 5 1013.0 - 1.4 - Cloudy - - - - -
19/07:00am 24.8 SSE 4 5 1012.7 - 1.4 - Cloudy - - - - -
19/06:30am 24.7 SSE 3 5 1012.3 - 1.4 - Cloudy - - - - -
19/06:00am 25.0 SE 3 4 1011.7 - 1.4 - Cloudy - - - - -
19/05:30am 25.2 E 3 5 1011.4 - 1.4 - Cloudy - - - - -
19/05:00am 25.0 E 3 4 1011.2 - 1.4 - Cloudy - - - - -
19/04:30am 24.8 CALM 0 0 1011.1 - 1.4 - Cloudy - - - - -
19/04:00am 24.7 E 3 4 1011.1 - 1.4 - Partly cloudy - - - - -
19/03:30am 25.0 ESE 2 4 1011.3 - 1.4 - - - - - - -
19/03:00am 25.0 ENE 3 4 1011.3 - 1.4 - - - - - - -
19/02:30am 25.3 ESE 2 5 1011.5 - 1.4 - Partly cloudy - - - - -
19/02:00am 25.4 ESE 1 3 1011.7 - 1.4 - Partly cloudy - - - - -
19/01:30am 24.9 E 1 4 1011.7 - 1.4 - - - - - - -
19/01:00am 25.5 CALM 0 0 1012.1 - 1.4 - - - - - - -
19/12:30am 25.5 SE 1 3 1012.3 - 1.4 - - - - - - -
19/12:00am 25.8 E 3 4 1012.4 - 1.4 - - - - - - -
 
Date/Time
EST
Temp

°C
Wind Pressure Rain
since 9am
mm
Weather Cloud Vis
km
Sea
Height
m
Swell
Dir
 
Speed
knots
Gust
knots
hPa Trend Height
m
Period
s
Dir
18/11:30pm 25.7 ENE 3 5 1012.7 - 1.4 - - - - - - -
18/11:00pm 25.5 NE 3 4 1012.7 - 1.4 - Partly cloudy - - - - -
18/10:30pm 26.2 SSE 5 17 1012.9 - 1.4 - Partly cloudy - - - - -
18/10:00pm 28.7 ESE 6 8 1013.1 - 0.0 - Partly cloudy - - - - -
18/09:30pm 28.9 SE 4 7 1012.8 - 0.0 - Partly cloudy - - - - -
18/09:00pm 28.9 E 6 14 1012.4 - 0.0 - Mostly cloudy - - - - -
18/08:30pm 28.2 SSW 6 8 1011.4 - 0.0 - Partly cloudy - - - - -
18/08:00pm 28.5 SSW 7 9 1011.0 - 0.0 - Partly cloudy - - - - -

Other Formats:

Comma delimited format used in spreadsheet applications
http://www.bom.gov.au/fwo/IDQ60701/IDQ60701.94268.axf

JavaScript Object Notation format (JSON) in row-major order
http://www.bom.gov.au/fwo/IDQ60701/IDQ60701.94268.json